Time;durP1;ratioP1;P1;durP2;ratioP2;P2;SDS_P1;SDS_P2;PMS_P1;PMS_P2;Temp;Humidity;BMP_temperature;BMP_pressure;BME280_temperature;BME280_humidity;BME280_pressure;Samples;Min_cycle;Max_cycle;Signal;HPM_P1;HPM_P2
2022/07/13 00:00:06;;;;;;;2.88;0.80;;;;;;;;;;4995647;28;20031;-82
2022/07/13 00:02:32;;;;;;;1.48;0.70;;;;;;;;;;4994879;28;20030;-81
2022/07/13 00:04:58;;;;;;;1.40;0.60;;;;;;;;;;4995614;28;20030;-79
2022/07/13 00:07:24;;;;;;;2.75;0.68;;;;;;;;;;4996346;28;20038;-79
2022/07/13 00:09:51;;;;;;;2.00;0.63;;;;;;;;;;4995680;28;20034;-82
2022/07/13 00:12:17;;;;;;;2.05;0.80;;;;;;;;;;4995456;28;20491;-82
2022/07/13 00:14:43;;;;;;;2.83;0.80;;;;;;;;;;4995415;28;20506;-82
2022/07/13 00:17:09;;;;;;;1.65;0.80;;;;;;;;;;4996188;28;20023;-79
2022/07/13 00:19:36;;;;;;;1.50;0.57;;;;;;;;;;4995220;28;20475;-79
2022/07/13 00:22:02;;;;;;;1.83;0.75;;;;;;;;;;4997053;28;20018;-79
2022/07/13 00:24:28;;;;;;;3.72;0.70;;;;;;;;;;4996085;28;20037;-79
2022/07/13 00:26:54;;;;;;;1.55;0.60;;;;;;;;;;4996437;28;20023;-79
2022/07/13 00:29:20;;;;;;;1.77;0.70;;;;;;;;;;4997535;28;20038;-81
2022/07/13 00:31:46;;;;;;;1.73;0.60;;;;;;;;;;4994480;28;20022;-80
2022/07/13 00:34:13;;;;;;;1.60;0.63;;;;;;;;;;4995769;28;20066;-81
2022/07/13 00:36:39;;;;;;;3.22;0.80;;;;;;;;;;4996602;28;20029;-81
2022/07/13 00:39:06;;;;;;;2.92;0.70;;;;;;;;;;4994974;28;20073;-82
2022/07/13 00:41:32;;;;;;;3.08;0.60;;;;;;;;;;4996219;28;20018;-81
2022/07/13 00:44:11;;;;;;;1.38;0.60;;;;;;;;;;4994777;28;20041;-82
2022/07/13 00:46:38;;;;;;;1.27;0.57;;;;;;;;;;4994969;28;20450;-82
2022/07/13 00:49:04;;;;;;;1.58;0.80;;;;;;;;;;4996234;28;20022;-79
2022/07/13 00:51:31;;;;;;;2.22;0.73;;;;;;;;;;4994684;28;20065;-79
2022/07/13 00:53:58;;;;;;;4.22;0.68;;;;;;;;;;4994609;28;20038;-82
2022/07/13 00:56:25;;;;;;;1.65;0.50;;;;;;;;;;4995672;28;20106;-82
2022/07/13 00:58:51;;;;;;;2.40;0.80;;;;;;;;;;4995174;28;20037;-81
2022/07/13 01:01:17;;;;;;;1.95;0.80;;;;;;;;;;4994343;28;20410;-80
2022/07/13 01:03:44;;;;;;;1.85;0.80;;;;;;;;;;4996141;28;20165;-82
2022/07/13 01:06:11;;;;;;;2.17;0.80;;;;;;;;;;4994134;28;20026;-81
2022/07/13 01:08:37;;;;;;;2.60;0.70;;;;;;;;;;4995372;28;20042;-81
2022/07/13 01:11:03;;;;;;;2.10;0.90;;;;;;;;;;4994501;28;20030;-80
2022/07/13 01:13:29;;;;;;;1.50;0.65;;;;;;;;;;4995544;28;20035;-79
2022/07/13 01:15:57;;;;;;;1.33;0.60;;;;;;;;;;4994357;28;20065;-81
2022/07/13 01:18:24;;;;;;;2.42;0.80;;;;;;;;;;4994189;28;20030;-81
2022/07/13 01:20:51;;;;;;;2.80;0.60;;;;;;;;;;4995474;28;20061;-82
2022/07/13 01:23:18;;;;;;;2.58;0.70;;;;;;;;;;4994335;28;20038;-79
2022/07/13 01:25:44;;;;;;;1.88;0.60;;;;;;;;;;4994000;28;20372;-81
2022/07/13 01:28:13;;;;;;;1.00;0.60;;;;;;;;;;4993968;28;20033;-81
2022/07/13 01:30:39;;;;;;;1.70;0.70;;;;;;;;;;4993446;28;20022;-81
2022/07/13 01:33:05;;;;;;;1.52;0.70;;;;;;;;;;4995236;28;20443;-81
2022/07/13 01:35:32;;;;;;;4.22;0.95;;;;;;;;;;4993459;28;20475;-81
2022/07/13 01:37:58;;;;;;;2.38;0.70;;;;;;;;;;4995147;28;20034;-81
2022/07/13 01:40:25;;;;;;;2.70;0.70;;;;;;;;;;4993694;28;20018;-81
2022/07/13 01:42:52;;;;;;;1.67;0.60;;;;;;;;;;4993825;28;20034;-82
2022/07/13 01:45:19;;;;;;;1.30;0.60;;;;;;;;;;4993926;28;20041;-81
2022/07/13 01:47:49;;;;;;;2.40;0.80;;;;;;;;;;4994811;28;20031;-79
2022/07/13 01:50:16;;;;;;;1.30;0.60;;;;;;;;;;4994012;28;20026;-79
2022/07/13 01:52:43;;;;;;;1.60;0.60;;;;;;;;;;4993715;28;20049;-81
2022/07/13 01:55:10;;;;;;;3.65;0.80;;;;;;;;;;4995425;28;20483;-78
2022/07/13 01:57:36;;;;;;;2.35;0.57;;;;;;;;;;4993851;28;20027;-81
2022/07/13 02:00:07;;;;;;;2.08;0.60;;;;;;;;;;4994789;28;20538;-80
2022/07/13 02:02:37;;;;;;;2.83;0.80;;;;;;;;;;4994888;28;20026;-79
2022/07/13 02:05:03;;;;;;;2.55;0.77;;;;;;;;;;4994979;28;20038;-79
2022/07/13 02:07:29;;;;;;;2.83;0.70;;;;;;;;;;4995190;28;20379;-79
2022/07/13 02:09:55;;;;;;;2.60;0.70;;;;;;;;;;4993007;28;20046;-82
2022/07/13 02:12:22;;;;;;;1.67;0.68;;;;;;;;;;4994669;28;20034;-79
2022/07/13 02:14:48;;;;;;;1.75;0.55;;;;;;;;;;4993462;28;20034;-81
2022/07/13 02:17:15;;;;;;;2.10;0.70;;;;;;;;;;4993386;28;20030;-79
2022/07/13 02:19:41;;;;;;;1.83;0.80;;;;;;;;;;4994309;28;20530;-81
2022/07/13 02:22:07;;;;;;;3.78;0.77;;;;;;;;;;4993618;28;20018;-79
2022/07/13 02:24:34;;;;;;;1.60;0.55;;;;;;;;;;4994538;28;20038;-81
2022/07/13 02:27:00;;;;;;;2.38;0.70;;;;;;;;;;4993009;28;20022;-79
2022/07/13 02:29:26;;;;;;;1.42;0.55;;;;;;;;;;4994660;28;20034;-80
2022/07/13 02:31:53;;;;;;;3.67;0.80;;;;;;;;;;4993680;28;20089;-81
2022/07/13 02:34:19;;;;;;;4.60;0.73;;;;;;;;;;4992860;28;20038;-81
2022/07/13 02:36:45;;;;;;;1.73;0.70;;;;;;;;;;4994228;28;20029;-79
2022/07/13 02:39:11;;;;;;;1.42;0.52;;;;;;;;;;4992481;28;20035;-80
2022/07/13 02:41:37;;;;;;;1.63;0.68;;;;;;;;;;4995301;28;20045;-82
2022/07/13 02:44:03;;;;;;;2.25;0.70;;;;;;;;;;4997125;28;20042;-81
2022/07/13 02:46:30;;;;;;;1.80;0.70;;;;;;;;;;4996819;28;20061;-82
2022/07/13 02:48:56;;;;;;;1.48;0.60;;;;;;;;;;4998280;28;20027;-81
2022/07/13 02:51:22;;;;;;;1.70;0.77;;;;;;;;;;4996910;28;20033;-82
2022/07/13 02:53:48;;;;;;;1.58;0.60;;;;;;;;;;4998134;28;20043;-81
2022/07/13 02:56:14;;;;;;;2.35;0.60;;;;;;;;;;4997675;28;20130;-78
2022/07/13 02:58:41;;;;;;;1.90;0.68;;;;;;;;;;4996556;28;20031;-82
2022/07/13 03:01:07;;;;;;;1.63;0.63;;;;;;;;;;4996361;28;20057;-81
2022/07/13 03:03:33;;;;;;;2.83;0.90;;;;;;;;;;4996323;28;20116;-82
2022/07/13 03:06:01;;;;;;;1.75;0.70;;;;;;;;;;4996991;28;20177;-79
2022/07/13 03:08:27;;;;;;;1.58;0.65;;;;;;;;;;4996013;28;20046;-82
2022/07/13 03:10:53;;;;;;;3.28;0.70;;;;;;;;;;4996349;28;20053;-82
2022/07/13 03:13:19;;;;;;;2.10;0.60;;;;;;;;;;4996094;28;20034;-82
2022/07/13 03:15:45;;;;;;;3.42;0.90;;;;;;;;;;4997593;28;20026;-82
2022/07/13 03:18:12;;;;;;;2.80;0.75;;;;;;;;;;4996170;28;20030;-82
2022/07/13 03:20:39;;;;;;;1.77;0.57;;;;;;;;;;4996069;28;20384;-82
2022/07/13 03:23:05;;;;;;;2.05;0.70;;;;;;;;;;4996683;28;20440;-82
2022/07/13 03:25:32;;;;;;;1.63;0.80;;;;;;;;;;4996494;28;20116;-82
2022/07/13 03:27:58;;;;;;;3.90;1.08;;;;;;;;;;4996798;28;20121;-82
2022/07/13 03:30:24;;;;;;;2.97;0.70;;;;;;;;;;4996037;28;20030;-82
2022/07/13 03:32:50;;;;;;;2.22;0.93;;;;;;;;;;4997469;28;20030;-79
2022/07/13 03:35:16;;;;;;;3.15;0.73;;;;;;;;;;4996660;28;20069;-82
2022/07/13 03:37:43;;;;;;;2.38;0.80;;;;;;;;;;4996512;28;20018;-80
2022/07/13 03:40:09;;;;;;;2.13;0.90;;;;;;;;;;4996710;28;20076;-81
2022/07/13 03:42:37;;;;;;;1.50;0.85;;;;;;;;;;4995754;28;20030;-79
2022/07/13 03:45:04;;;;;;;1.92;0.77;;;;;;;;;;4996014;28;20022;-79
2022/07/13 03:47:30;;;;;;;2.80;0.70;;;;;;;;;;4996683;28;20030;-81
2022/07/13 03:49:56;;;;;;;1.75;0.70;;;;;;;;;;4995617;28;20037;-81
2022/07/13 03:52:22;;;;;;;2.33;0.68;;;;;;;;;;4996597;28;20089;-81
2022/07/13 03:54:48;;;;;;;3.53;0.80;;;;;;;;;;4996836;28;20034;-83
2022/07/13 03:57:15;;;;;;;2.88;0.70;;;;;;;;;;4995858;28;20030;-83
2022/07/13 03:59:41;;;;;;;1.77;0.80;;;;;;;;;;4996918;28;20034;-82
2022/07/13 04:02:07;;;;;;;1.35;0.70;;;;;;;;;;4996004;28;20030;-80
2022/07/13 04:04:33;;;;;;;1.70;0.73;;;;;;;;;;4996953;28;20038;-82
2022/07/13 04:07:00;;;;;;;2.00;0.68;;;;;;;;;;4995823;28;20034;-79
2022/07/13 04:09:26;;;;;;;2.20;0.75;;;;;;;;;;4994929;28;20058;-80
2022/07/13 04:11:52;;;;;;;2.20;0.70;;;;;;;;;;4996862;28;20026;-82
2022/07/13 04:14:19;;;;;;;3.25;0.82;;;;;;;;;;4995208;28;20444;-82
2022/07/13 04:16:45;;;;;;;3.83;0.70;;;;;;;;;;4995088;28;20037;-81
2022/07/13 04:19:11;;;;;;;3.42;0.80;;;;;;;;;;4995404;28;20030;-79
2022/07/13 04:21:37;;;;;;;2.05;0.68;;;;;;;;;;4995731;28;20025;-83
2022/07/13 04:24:04;;;;;;;2.63;0.70;;;;;;;;;;4996988;28;20503;-79
2022/07/13 04:26:30;;;;;;;2.63;0.70;;;;;;;;;;4996479;28;20037;-83
2022/07/13 04:28:56;;;;;;;3.92;0.70;;;;;;;;;;4996609;28;20356;-79
2022/07/13 04:31:22;;;;;;;2.42;0.73;;;;;;;;;;4996744;28;20089;-82
2022/07/13 04:33:48;;;;;;;1.73;0.70;;;;;;;;;;4995218;28;20093;-82
2022/07/13 04:36:15;;;;;;;3.55;0.70;;;;;;;;;;4997614;28;20022;-79
2022/07/13 04:38:41;;;;;;;1.98;0.88;;;;;;;;;;4994447;28;20034;-82
2022/07/13 04:41:07;;;;;;;1.92;0.70;;;;;;;;;;4994433;28;20036;-81
2022/07/13 04:43:33;;;;;;;1.60;0.70;;;;;;;;;;4996735;28;20041;-83
2022/07/13 04:46:00;;;;;;;1.27;0.50;;;;;;;;;;4994709;28;20029;-79
2022/07/13 04:48:26;;;;;;;3.30;0.85;;;;;;;;;;4995121;28;20076;-82
2022/07/13 04:50:52;;;;;;;2.33;0.70;;;;;;;;;;4996438;28;20035;-82
2022/07/13 04:53:18;;;;;;;1.95;0.82;;;;;;;;;;4994474;28;20038;-79
2022/07/13 04:55:44;;;;;;;2.55;0.65;;;;;;;;;;4994566;28;20040;-86
2022/07/13 04:58:11;;;;;;;1.83;0.60;;;;;;;;;;4994883;28;20411;-83
2022/07/13 05:00:37;;;;;;;2.30;0.60;;;;;;;;;;4994778;28;20050;-84
2022/07/13 05:03:04;;;;;;;1.27;0.60;;;;;;;;;;4995632;28;20041;-88
2022/07/13 05:05:32;;;;;;;3.78;0.80;;;;;;;;;;4994002;28;20456;-84
2022/07/13 05:08:01;;;;;;;4.35;0.90;;;;;;;;;;4995236;28;20549;-79
2022/07/13 05:10:28;;;;;;;3.55;0.70;;;;;;;;;;4994017;28;20062;-80
2022/07/13 05:12:54;;;;;;;2.65;0.60;;;;;;;;;;4994030;28;20502;-80
2022/07/13 05:15:20;;;;;;;1.10;0.50;;;;;;;;;;4993741;28;20026;-77
2022/07/13 05:17:46;;;;;;;1.85;0.52;;;;;;;;;;4994605;28;20491;-80
2022/07/13 05:20:12;;;;;;;4.03;0.88;;;;;;;;;;4995275;28;20431;-79
2022/07/13 05:22:38;;;;;;;1.45;0.63;;;;;;;;;;4993505;28;20038;-80
2022/07/13 05:25:05;;;;;;;1.65;0.60;;;;;;;;;;4994749;28;20026;-79
2022/07/13 05:27:31;;;;;;;3.67;0.80;;;;;;;;;;4994052;28;20372;-80
2022/07/13 05:29:57;;;;;;;3.03;0.75;;;;;;;;;;4993841;28;20026;-79
2022/07/13 05:32:23;;;;;;;4.80;0.80;;;;;;;;;;4994385;28;20034;-80
2022/07/13 05:34:49;;;;;;;1.17;0.60;;;;;;;;;;4993501;28;20116;-79
2022/07/13 05:37:16;;;;;;;1.35;0.52;;;;;;;;;;4993579;28;20117;-81
2022/07/13 05:39:45;;;;;;;1.58;0.60;;;;;;;;;;4993017;28;20081;-81
2022/07/13 05:42:12;;;;;;;3.92;0.50;;;;;;;;;;4993611;28;20101;-82
2022/07/13 05:44:38;;;;;;;1.95;0.70;;;;;;;;;;4993180;28;20127;-80
2022/07/13 05:47:04;;;;;;;0.80;0.40;;;;;;;;;;4992533;28;20031;-77
2022/07/13 05:49:30;;;;;;;1.23;0.40;;;;;;;;;;4994575;28;20038;-78
2022/07/13 05:51:56;;;;;;;1.15;0.50;;;;;;;;;;4993314;28;20033;-80
2022/07/13 05:54:23;;;;;;;1.98;0.60;;;;;;;;;;4993502;28;20070;-80
2022/07/13 05:56:49;;;;;;;2.25;0.52;;;;;;;;;;4993176;28;20018;-80
2022/07/13 05:59:15;;;;;;;3.63;0.68;;;;;;;;;;4992783;28;20060;-82
2022/07/13 06:01:41;;;;;;;2.05;0.57;;;;;;;;;;4993212;28;20022;-85
2022/07/13 06:04:07;;;;;;;2.65;0.52;;;;;;;;;;4993540;28;20037;-83
2022/07/13 06:06:33;;;;;;;7.15;0.73;;;;;;;;;;4993742;28;20030;-86
2022/07/13 06:08:59;;;;;;;2.88;0.60;;;;;;;;;;4993700;28;20057;-88
2022/07/13 06:11:26;;;;;;;0.93;0.47;;;;;;;;;;4994036;28;20042;-83
2022/07/13 06:13:52;;;;;;;1.98;0.60;;;;;;;;;;4992507;28;20078;-83
2022/07/13 06:16:18;;;;;;;2.83;0.80;;;;;;;;;;4998548;28;20026;-80
2022/07/13 06:18:44;;;;;;;2.60;1.05;;;;;;;;;;4999841;28;20034;-79
2022/07/13 06:21:10;;;;;;;1.38;0.52;;;;;;;;;;4999606;28;20038;-79
2022/07/13 06:23:36;;;;;;;1.73;0.60;;;;;;;;;;4999491;28;20084;-79
2022/07/13 06:26:02;;;;;;;2.92;0.55;;;;;;;;;;4999293;28;20081;-78
2022/07/13 06:28:28;;;;;;;3.60;0.90;;;;;;;;;;4999664;28;20060;-80
2022/07/13 06:30:54;;;;;;;2.33;0.52;;;;;;;;;;5000000;28;20029;-79
2022/07/13 06:33:20;;;;;;;2.10;0.60;;;;;;;;;;4999824;28;20034;-78
2022/07/13 06:35:47;;;;;;;2.28;0.60;;;;;;;;;;4998994;28;20022;-78
2022/07/13 06:38:13;;;;;;;1.17;0.50;;;;;;;;;;4998875;28;20068;-76
2022/07/13 06:40:39;;;;;;;2.80;0.57;;;;;;;;;;5000627;28;20064;-87
2022/07/13 06:43:05;;;;;;;1.98;0.60;;;;;;;;;;4999308;28;20022;-80
2022/07/13 06:45:31;;;;;;;1.80;0.60;;;;;;;;;;5001532;28;20463;-85
2022/07/13 06:47:57;;;;;;;1.90;0.65;;;;;;;;;;5000770;28;20030;-76
2022/07/13 06:50:24;;;;;;;1.92;0.65;;;;;;;;;;4999668;28;20033;-83
2022/07/13 06:52:50;;;;;;;2.58;0.70;;;;;;;;;;4999281;28;20360;-76
2022/07/13 06:55:16;;;;;;;2.40;0.65;;;;;;;;;;4998824;28;20085;-77
2022/07/13 06:57:42;;;;;;;1.17;0.50;;;;;;;;;;4999230;28;20034;-77
2022/07/13 07:00:08;;;;;;;2.60;0.70;;;;;;;;;;4998701;28;20030;-76
2022/07/13 07:02:36;;;;;;;2.15;0.60;;;;;;;;;;4998985;28;20031;-77
2022/07/13 07:05:02;;;;;;;1.67;0.52;;;;;;;;;;4999100;28;20026;-78
2022/07/13 07:07:29;;;;;;;4.53;0.50;;;;;;;;;;4998419;28;20082;-78
2022/07/13 07:09:55;;;;;;;3.38;0.80;;;;;;;;;;4999474;28;20046;-79
2022/07/13 07:12:21;;;;;;;1.73;0.80;;;;;;;;;;5000661;28;20027;-78
2022/07/13 07:14:47;;;;;;;2.75;0.70;;;;;;;;;;4999237;28;20068;-79
2022/07/13 07:17:16;;;;;;;1.80;0.75;;;;;;;;;;4999731;28;20031;-80
2022/07/13 07:19:44;;;;;;;6.30;0.70;;;;;;;;;;4999002;28;20030;-79
2022/07/13 07:22:10;;;;;;;1.30;0.52;;;;;;;;;;4999190;28;20030;-79
2022/07/13 07:24:36;;;;;;;2.33;0.50;;;;;;;;;;4998968;28;20088;-80
2022/07/13 07:27:05;;;;;;;1.55;0.60;;;;;;;;;;4996348;28;20023;-79
2022/07/13 07:29:31;;;;;;;1.55;0.70;;;;;;;;;;4996885;28;20454;-79
2022/07/13 07:31:58;;;;;;;2.83;0.63;;;;;;;;;;4995867;28;20526;-79
2022/07/13 07:34:24;;;;;;;1.98;0.40;;;;;;;;;;4997189;28;20034;-79
2022/07/13 07:36:50;;;;;;;2.35;0.50;;;;;;;;;;4995502;28;20031;-79
2022/07/13 07:39:16;;;;;;;1.52;0.40;;;;;;;;;;5011516;28;20101;-79
2022/07/13 07:41:42;;;;;;;1.58;0.50;;;;;;;;;;5002730;28;20034;-77
2022/07/13 07:44:08;;;;;;;4.35;0.50;;;;;;;;;;4995904;28;20030;-80
2022/07/13 07:46:35;;;;;;;1.40;0.50;;;;;;;;;;4995361;28;20069;-78
2022/07/13 07:49:03;;;;;;;2.10;0.50;;;;;;;;;;4995266;28;20122;-80
2022/07/13 07:51:30;;;;;;;1.20;0.40;;;;;;;;;;4996898;28;20356;-80
2022/07/13 07:53:59;;;;;;;0.80;0.40;;;;;;;;;;4997122;28;20038;-78
2022/07/13 07:56:25;;;;;;;1.33;0.43;;;;;;;;;;4995348;28;20019;-75
2022/07/13 07:58:52;;;;;;;1.38;0.40;;;;;;;;;;4995266;28;20037;-86
2022/07/13 08:01:18;;;;;;;6.88;0.90;;;;;;;;;;4995362;28;20090;-84
2022/07/13 08:03:44;;;;;;;7.63;0.60;;;;;;;;;;4996960;28;20464;-75
2022/07/13 08:06:11;;;;;;;3.13;0.50;;;;;;;;;;4995004;28;20027;-75
2022/07/13 08:08:38;;;;;;;6.03;0.55;;;;;;;;;;4994787;28;20042;-78
2022/07/13 08:11:04;;;;;;;1.25;0.50;;;;;;;;;;4994899;28;20473;-78
2022/07/13 08:13:31;;;;;;;2.35;0.57;;;;;;;;;;4995837;28;20049;-87
2022/07/13 08:15:57;;;;;;;4.47;0.50;;;;;;;;;;4995168;28;20073;-78
2022/07/13 08:18:23;;;;;;;4.85;0.65;;;;;;;;;;4994849;28;20030;-86
2022/07/13 08:20:49;;;;;;;3.03;0.60;;;;;;;;;;4994141;28;20026;-78
2022/07/13 08:26:00;;;;;;;1.48;0.45;;;;;;;;;;4995653;28;20077;-83
2022/07/13 08:28:27;;;;;;;2.92;0.60;;;;;;;;;;4994527;28;20022;-82
2022/07/13 08:30:53;;;;;;;5.18;0.50;;;;;;;;;;4994998;28;20112;-84
2022/07/13 08:38:34;;;;;;;3.85;0.60;;;;;;;;;;4995396;28;20410;-77
2022/07/13 08:38:50;;;;;;;5.28;0.50;;;;;;;;;;4994644;28;20104;-81
2022/07/13 08:41:16;;;;;;;1.70;0.43;;;;;;;;;;4994035;28;20113;-81
2022/07/13 08:43:42;;;;;;;2.22;0.43;;;;;;;;;;4995095;28;20113;-77
2022/07/13 08:46:08;;;;;;;1.92;0.50;;;;;;;;;;4996091;28;20031;-79
2022/07/13 08:48:37;;;;;;;3.97;0.60;;;;;;;;;;4994092;28;20062;-77
2022/07/13 08:51:05;;;;;;;2.83;0.50;;;;;;;;;;4993748;28;20026;-76
2022/07/13 08:53:31;;;;;;;2.33;0.40;;;;;;;;;;4994949;28;20034;-77
2022/07/13 08:55:57;;;;;;;14.35;0.82;;;;;;;;;;4994137;28;20395;-79
2022/07/13 08:58:23;;;;;;;49.80;1.95;;;;;;;;;;4994008;28;20076;-76
2022/07/13 09:00:50;;;;;;;3.05;0.43;;;;;;;;;;4993890;28;20026;-80
2022/07/13 09:03:16;;;;;;;2.55;0.60;;;;;;;;;;4994540;28;20027;-76
2022/07/13 09:05:43;;;;;;;7.65;0.60;;;;;;;;;;4994822;28;20494;-78
2022/07/13 09:08:10;;;;;;;1.48;0.35;;;;;;;;;;4995511;28;20046;-78
2022/07/13 09:10:57;;;;;;;14.55;0.90;;;;;;;;;;5000640;28;20037;-78
2022/07/13 09:13:44;;;;;;;10.77;0.90;;;;;;;;;;4997920;28;20136;-78
2022/07/13 09:16:24;;;;;;;12.90;0.77;;;;;;;;;;5001375;28;20025;-79
2022/07/13 09:18:53;;;;;;;3.60;0.60;;;;;;;;;;4996755;28;20030;-79
2022/07/13 09:21:20;;;;;;;7.05;0.80;;;;;;;;;;4992649;28;20482;-78
2022/07/13 09:23:59;;;;;;;2.30;0.60;;;;;;;;;;4993756;28;20117;-80
2022/07/13 09:26:42;;;;;;;1.60;0.40;;;;;;;;;;5000255;28;20054;-79
2022/07/13 09:29:11;;;;;;;7.20;0.60;;;;;;;;;;4995518;28;20026;-79
2022/07/13 09:32:00;;;;;;;4.38;0.77;;;;;;;;;;5002570;28;20030;-78
2022/07/13 09:34:46;;;;;;;8.10;0.80;;;;;;;;;;5021614;28;20038;-79
2022/07/13 09:37:12;;;;;;;7.05;0.60;;;;;;;;;;5012860;28;20509;-79
2022/07/13 09:39:57;;;;;;;2.90;0.40;;;;;;;;;;5013487;28;20439;-74
2022/07/13 09:42:30;;;;;;;2.38;0.40;;;;;;;;;;5012956;28;20037;-74
2022/07/13 09:47:48;;;;;;;4.13;0.68;;;;;;;;;;5013854;28;20153;-78
2022/07/13 09:50:19;;;;;;;1.83;0.47;;;;;;;;;;5012782;28;20132;-81
2022/07/13 09:52:46;;;;;;;1.77;0.50;;;;;;;;;;5007131;28;20102;-75
2022/07/13 09:55:13;;;;;;;1.67;0.60;;;;;;;;;;4993377;28;20363;-77
2022/07/13 09:58:09;;;;;;;2.10;0.45;;;;;;;;;;4992649;28;20022;-78
2022/07/13 10:00:35;;;;;;;1.75;0.30;;;;;;;;;;4980884;28;20053;-75
2022/07/13 10:03:02;;;;;;;1.75;0.50;;;;;;;;;;4992568;28;20030;-81
2022/07/13 10:05:28;;;;;;;2.83;0.50;;;;;;;;;;4992846;28;20081;-77
2022/07/13 10:07:55;;;;;;;0.95;0.32;;;;;;;;;;4992511;28;20554;-79
2022/07/13 10:10:22;;;;;;;3.53;0.50;;;;;;;;;;4993961;28;20035;-80
2022/07/13 10:12:48;;;;;;;1.42;0.40;;;;;;;;;;4992809;28;20038;-78
2022/07/13 10:15:14;;;;;;;2.88;0.40;;;;;;;;;;4993756;28;20031;-82
2022/07/13 10:17:46;;;;;;;2.30;1.30;;;;;;;;;;4993751;28;20377;-79
2022/07/13 10:20:15;;;;;;;2.65;0.70;;;;;;;;;;4992876;28;20479;-85
2022/07/13 10:22:45;;;;;;;1.40;0.52;;;;;;;;;;4993319;28;20080;-84
2022/07/13 10:25:11;;;;;;;1.20;0.40;;;;;;;;;;4993455;28;20121;-80
2022/07/13 10:27:38;;;;;;;1.20;0.30;;;;;;;;;;4993022;28;20022;-86
2022/07/13 10:30:06;;;;;;;1.48;0.50;;;;;;;;;;4992824;28;20045;-77
2022/07/13 10:32:34;;;;;;;1.95;0.60;;;;;;;;;;4992807;28;20025;-82
2022/07/13 10:35:01;;;;;;;2.80;0.50;;;;;;;;;;4994198;28;20027;-80
2022/07/13 10:37:28;;;;;;;3.50;0.40;;;;;;;;;;4993859;28;20405;-77
2022/07/13 10:40:15;;;;;;;1.10;0.25;;;;;;;;;;4994741;28;20077;-76
2022/07/13 10:42:57;;;;;;;1.83;0.50;;;;;;;;;;4992949;28;20074;-78
2022/07/13 10:45:43;;;;;;;0.82;0.30;;;;;;;;;;4997559;28;20025;-78
2022/07/13 10:48:32;;;;;;;4.97;0.40;;;;;;;;;;5011862;28;20029;-77
2022/07/13 10:51:01;;;;;;;2.40;0.47;;;;;;;;;;5013271;28;20146;-78
2022/07/13 10:53:40;;;;;;;1.00;0.50;;;;;;;;;;5011803;28;20038;-79
2022/07/13 10:56:17;;;;;;;2.85;0.70;;;;;;;;;;5011826;28;20026;-80
2022/07/13 10:58:44;;;;;;;2.53;0.50;;;;;;;;;;5012091;28;20026;-83
2022/07/13 11:01:50;;;;;;;2.67;0.60;;;;;;;;;;5012110;28;20057;-83
2022/07/13 11:04:17;;;;;;;4.20;0.50;;;;;;;;;;4940875;29;20027;-78
2022/07/13 11:06:43;;;;;;;1.63;0.50;;;;;;;;;;4940197;29;20412;-81
2022/07/13 11:09:14;;;;;;;3.17;0.43;;;;;;;;;;4975960;28;20084;-81
2022/07/13 11:11:45;;;;;;;6.03;0.60;;;;;;;;;;5016547;28;20036;-79
2022/07/13 11:14:30;;;;;;;5.10;0.65;;;;;;;;;;5015455;28;20057;-84
2022/07/13 11:16:56;;;;;;;2.55;0.68;;;;;;;;;;5015783;28;20474;-86
2022/07/13 11:19:41;;;;;;;3.28;0.60;;;;;;;;;;5016297;28;20025;-82
2022/07/13 11:22:08;;;;;;;3.70;0.70;;;;;;;;;;5015693;28;20064;-85
2022/07/13 11:27:26;;;;;;;2.53;0.60;;;;;;;;;;5017598;28;20445;-79
2022/07/13 11:29:59;;;;;;;1.75;0.50;;;;;;;;;;5016004;28;20065;-82
2022/07/13 11:32:26;;;;;;;4.25;0.60;;;;;;;;;;5015598;28;20026;-76
2022/07/13 11:34:52;;;;;;;2.10;0.50;;;;;;;;;;5017264;28;20034;-79
2022/07/13 11:37:25;;;;;;;2.95;0.60;;;;;;;;;;5015215;28;20037;-79
2022/07/13 11:39:52;;;;;;;1.83;0.50;;;;;;;;;;5015459;28;20562;-78
2022/07/13 11:42:27;;;;;;;2.20;0.60;;;;;;;;;;5015743;28;20038;-90
2022/07/13 11:44:53;;;;;;;1.35;0.50;;;;;;;;;;5015694;28;20145;-83
2022/07/13 11:47:20;;;;;;;1.55;0.60;;;;;;;;;;5014919;28;20555;-82
2022/07/13 11:49:49;;;;;;;3.83;0.63;;;;;;;;;;5015277;28;20517;-83
2022/07/13 11:52:19;;;;;;;1.58;0.60;;;;;;;;;;5014833;28;20112;-79
2022/07/13 11:54:55;;;;;;;3.25;0.50;;;;;;;;;;5014791;28;20125;-81
2022/07/13 11:57:21;;;;;;;1.83;0.60;;;;;;;;;;5014957;28;20075;-80
2022/07/13 11:59:48;;;;;;;2.30;0.60;;;;;;;;;;5015457;28;20030;-81
2022/07/13 12:02:15;;;;;;;4.03;0.40;;;;;;;;;;5015024;28;20030;-81
2022/07/13 12:04:41;;;;;;;4.72;0.98;;;;;;;;;;5015934;28;20030;-78
2022/07/13 12:07:15;;;;;;;1.35;0.50;;;;;;;;;;5015263;28;20029;-83
2022/07/13 12:09:50;;;;;;;2.75;0.60;;;;;;;;;;5015193;28;20041;-80
2022/07/13 12:12:17;;;;;;;3.35;0.47;;;;;;;;;;4995320;28;20022;-80
2022/07/13 12:14:44;;;;;;;1.40;0.60;;;;;;;;;;4995216;28;20076;-81
2022/07/13 12:17:10;;;;;;;1.52;0.50;;;;;;;;;;4995479;28;20601;-82
2022/07/13 12:19:36;;;;;;;1.00;0.47;;;;;;;;;;4995074;28;20368;-79
2022/07/13 12:22:05;;;;;;;1.02;0.30;;;;;;;;;;4994814;28;20390;-82
2022/07/13 12:24:34;;;;;;;6.60;0.50;;;;;;;;;;4995227;28;20019;-82
2022/07/13 12:27:01;;;;;;;0.98;0.40;;;;;;;;;;4997026;28;20018;-76
2022/07/13 12:29:33;;;;;;;1.00;0.30;;;;;;;;;;4994374;28;20391;-79
2022/07/13 12:32:00;;;;;;;1.30;0.50;;;;;;;;;;4994146;28;20036;-79
2022/07/13 12:34:26;;;;;;;2.55;0.30;;;;;;;;;;4994379;28;20034;-79
2022/07/13 12:36:53;;;;;;;1.83;0.32;;;;;;;;;;4995939;28;20065;-81
2022/07/13 12:39:40;;;;;;;3.00;0.30;;;;;;;;;;4994471;28;20034;-80
2022/07/13 12:42:07;;;;;;;2.15;0.50;;;;;;;;;;4994218;28;20050;-80
2022/07/13 12:44:33;;;;;;;2.70;0.50;;;;;;;;;;4995538;28;20127;-81
2022/07/13 12:47:00;;;;;;;0.95;0.50;;;;;;;;;;4994462;28;20034;-81
2022/07/13 12:49:47;;;;;;;1.15;0.50;;;;;;;;;;4994134;28;20030;-79
2022/07/13 12:52:14;;;;;;;0.82;0.43;;;;;;;;;;4994355;28;20048;-78
2022/07/13 12:54:47;;;;;;;1.55;0.50;;;;;;;;;;4995620;28;20129;-84
2022/07/13 12:57:15;;;;;;;2.03;0.40;;;;;;;;;;4994449;28;20026;-78
2022/07/13 12:59:41;;;;;;;1.50;0.50;;;;;;;;;;4994671;28;20034;-78
2022/07/13 13:02:08;;;;;;;3.85;0.50;;;;;;;;;;4993983;28;20033;-79
2022/07/13 13:04:34;;;;;;;4.22;0.60;;;;;;;;;;4994086;28;20080;-81
2022/07/13 13:07:00;;;;;;;1.88;0.47;;;;;;;;;;4994054;28;20033;-78
2022/07/13 13:09:26;;;;;;;1.00;0.40;;;;;;;;;;4993824;28;20054;-81
2022/07/13 13:11:52;;;;;;;2.40;0.50;;;;;;;;;;4994033;28;20022;-78
2022/07/13 13:14:19;;;;;;;2.10;0.70;;;;;;;;;;4994222;28;20407;-78
2022/07/13 13:16:45;;;;;;;3.08;0.70;;;;;;;;;;4998025;28;20034;-78
2022/07/13 13:19:12;;;;;;;4.90;0.85;;;;;;;;;;5013220;28;20022;-79
2022/07/13 13:21:38;;;;;;;1.00;0.50;;;;;;;;;;5013079;28;20033;-78
2022/07/13 13:24:09;;;;;;;1.15;0.30;;;;;;;;;;5012896;28;20501;-80
2022/07/13 13:26:35;;;;;;;1.13;0.47;;;;;;;;;;5013255;28;20034;-79
2022/07/13 13:31:46;;;;;;;0.50;0.20;;;;;;;;;;5015018;28;20084;-86
2022/07/13 13:34:13;;;;;;;0.70;0.30;;;;;;;;;;5013598;28;20067;-77
2022/07/13 13:36:39;;;;;;;1.20;0.40;;;;;;;;;;5013322;28;20572;-88
2022/07/13 13:39:06;;;;;;;1.00;0.40;;;;;;;;;;5014400;28;20088;-86
2022/07/13 13:41:33;;;;;;;1.77;0.40;;;;;;;;;;5013656;28;20018;-82
2022/07/13 13:43:59;;;;;;;1.77;0.43;;;;;;;;;;5013260;28;20120;-78
2022/07/13 13:46:25;;;;;;;1.30;0.40;;;;;;;;;;5013222;28;20036;-84
2022/07/13 13:48:51;;;;;;;1.90;0.50;;;;;;;;;;5012906;28;20087;-79
2022/07/13 13:51:17;;;;;;;2.60;0.60;;;;;;;;;;5012981;28;20359;-81
2022/07/13 13:53:43;;;;;;;3.10;0.63;;;;;;;;;;5013162;28;20100;-80
2022/07/13 13:56:10;;;;;;;0.88;0.30;;;;;;;;;;5013399;28;20385;-79
2022/07/13 13:58:36;;;;;;;1.55;0.70;;;;;;;;;;5012814;28;20049;-83
2022/07/13 14:01:02;;;;;;;5.18;0.60;;;;;;;;;;5012854;28;20028;-83
2022/07/13 14:03:28;;;;;;;3.08;0.40;;;;;;;;;;5013321;28;20028;-77
2022/07/13 14:05:54;;;;;;;1.10;0.45;;;;;;;;;;4994709;28;20030;-79
2022/07/13 14:08:21;;;;;;;2.03;0.40;;;;;;;;;;4992828;28;20042;-79
2022/07/13 14:10:47;;;;;;;0.55;0.28;;;;;;;;;;4992839;28;20399;-76
2022/07/13 14:13:13;;;;;;;1.65;0.40;;;;;;;;;;4993240;28;20129;-77
2022/07/13 14:15:39;;;;;;;3.00;0.70;;;;;;;;;;4992923;28;20030;-76
2022/07/13 14:18:05;;;;;;;4.10;0.45;;;;;;;;;;4994326;28;20065;-76
2022/07/13 14:20:31;;;;;;;1.02;0.30;;;;;;;;;;4993911;28;20022;-76
2022/07/13 14:22:57;;;;;;;3.10;0.40;;;;;;;;;;4994515;28;20113;-78
2022/07/13 14:25:24;;;;;;;2.00;0.43;;;;;;;;;;4994581;28;20080;-76
2022/07/13 14:27:50;;;;;;;1.45;0.40;;;;;;;;;;4994084;28;20065;-77
2022/07/13 14:30:17;;;;;;;1.92;0.43;;;;;;;;;;4997584;28;20023;-77
2022/07/13 14:32:43;;;;;;;2.00;0.30;;;;;;;;;;5005415;28;20029;-77
2022/07/13 14:35:11;;;;;;;3.80;0.90;;;;;;;;;;5004558;28;20030;-75
2022/07/13 14:37:37;;;;;;;2.90;1.58;;;;;;;;;;4999847;28;20487;-74
2022/07/13 14:40:04;;;;;;;1.48;0.60;;;;;;;;;;4997014;28;20030;-78
2022/07/13 14:42:30;;;;;;;2.05;0.40;;;;;;;;;;4997317;28;20022;-76
2022/07/13 14:44:56;;;;;;;2.05;0.35;;;;;;;;;;4997990;28;20029;-75
2022/07/13 14:47:22;;;;;;;1.27;0.35;;;;;;;;;;4997670;28;20364;-75
2022/07/13 14:49:48;;;;;;;0.82;0.20;;;;;;;;;;5004993;28;20038;-77
2022/07/13 14:52:15;;;;;;;1.33;0.40;;;;;;;;;;4996452;28;20046;-74
2022/07/13 14:54:41;;;;;;;1.23;0.40;;;;;;;;;;5009789;28;20037;-74
2022/07/13 14:57:08;;;;;;;1.20;0.30;;;;;;;;;;5009926;28;20014;-75
2022/07/13 14:59:34;;;;;;;1.70;0.40;;;;;;;;;;5000112;28;20034;-75